Time;durP1;ratioP1;P1;durP2;ratioP2;P2;SDS_P1;SDS_P2;PMS_P1;PMS_P2;Temp;Humidity;BMP_temperature;BMP_pressure;BME280_temperature;BME280_humidity;BME280_pressure;Samples;Min_cycle;Max_cycle;Signal;HPM_P1;HPM_P2
2023/06/15 00:01:46;;;;;;;26.17;7.60;;;;;;;18.18;44.42;96111.31;4976543;28;20445;-71
2023/06/15 00:04:11;;;;;;;7.77;6.70;;;;;;;18.08;44.49;96101.56;4979452;28;20457;-70
2023/06/15 00:06:37;;;;;;;7.27;6.57;;;;;;;18.09;44.98;96103.22;4986220;28;20185;-70
2023/06/15 00:09:03;;;;;;;7.67;6.97;;;;;;;18.05;44.84;96102.66;4981709;28;20165;-70
2023/06/15 00:11:28;;;;;;;8.50;7.63;;;;;;;17.90;45.49;96104.66;4976435;28;20657;-71
2023/06/15 00:13:53;;;;;;;8.20;7.37;;;;;;;17.88;45.42;96108.41;4974387;28;20181;-71
2023/06/15 00:16:19;;;;;;;9.27;7.73;;;;;;;17.86;45.58;96108.56;4979247;28;20265;-70
2023/06/15 00:18:48;;;;;;;8.80;6.80;;;;;;;17.79;45.65;96115.28;4984515;28;20208;-71
2023/06/15 00:21:17;;;;;;;13.97;6.87;;;;;;;17.78;45.51;96109.09;4977487;28;20248;-70
2023/06/15 00:23:44;;;;;;;11.47;7.73;;;;;;;17.79;45.69;96109.97;4976365;28;20433;-71
2023/06/15 00:26:10;;;;;;;6.93;6.20;;;;;;;17.66;45.91;96106.56;4970882;28;20464;-71
2023/06/15 00:28:35;;;;;;;6.87;6.17;;;;;;;17.42;47.12;96106.63;4980934;28;20436;-71
2023/06/15 00:31:01;;;;;;;6.73;6.13;;;;;;;17.48;46.63;96108.78;4980849;28;20456;-70
2023/06/15 00:33:26;;;;;;;7.93;6.23;;;;;;;17.47;46.22;96113.25;4976557;28;20317;-71
2023/06/15 00:35:52;;;;;;;7.20;6.50;;;;;;;17.34;47.22;96104.56;4978984;28;20192;-69
2023/06/15 00:38:17;;;;;;;8.17;7.20;;;;;;;17.51;46.47;96114.72;4972622;28;20740;-70
2023/06/15 00:40:42;;;;;;;6.33;5.67;;;;;;;17.47;46.58;96115.91;4984656;28;20303;-71
2023/06/15 00:43:08;;;;;;;6.77;6.07;;;;;;;17.30;46.91;96122.50;4979162;28;20207;-71
2023/06/15 00:45:33;;;;;;;8.63;7.13;;;;;;;17.20;46.95;96126.81;4975180;28;20185;-72
2023/06/15 00:48:00;;;;;;;12.17;6.70;;;;;;;17.20;46.85;96118.03;4972655;28;20185;-71
2023/06/15 00:50:29;;;;;;;7.40;6.70;;;;;;;17.25;47.28;96129.97;4972784;28;20260;-71
2023/06/15 00:52:55;;;;;;;9.93;7.40;;;;;;;17.18;47.38;96131.38;4983416;28;20467;-70
2023/06/15 00:55:21;;;;;;;19.17;7.20;;;;;;;17.44;47.00;96129.41;4976802;28;20472;-69
2023/06/15 00:57:49;;;;;;;10.07;7.00;;;;;;;17.65;46.11;96126.09;4975701;28;20186;-71
2023/06/15 01:00:16;;;;;;;8.90;5.77;;;;;;;17.52;46.05;96132.31;4972541;28;20862;-71
2023/06/15 01:02:42;;;;;;;11.60;5.90;;;;;;;17.30;47.05;96129.63;4985463;28;20535;-71
2023/06/15 01:05:12;;;;;;;6.60;6.00;;;;;;;17.41;46.61;96131.44;4979908;28;20518;-70
2023/06/15 01:07:47;;;;;;;7.07;6.30;;;;;;;17.31;46.92;96133.94;4979435;28;20573;-71
2023/06/15 01:10:18;;;;;;;6.73;6.07;;;;;;;17.36;46.76;96131.78;4975853;28;20828;-70
2023/06/15 01:12:45;;;;;;;6.70;6.10;;;;;;;17.11;47.56;96133.63;4976168;28;20442;-70
2023/06/15 01:15:12;;;;;;;7.20;6.50;;;;;;;17.05;47.83;96138.53;4981594;28;20439;-70
2023/06/15 01:17:46;;;;;;;10.07;6.63;;;;;;;17.10;47.62;96125.78;4979648;28;20920;-71
2023/06/15 01:20:26;;;;;;;7.13;6.53;;;;;;;17.16;47.67;96129.81;4973672;28;20491;-71
2023/06/15 01:23:22;;;;;;;7.13;6.23;;;;;;;17.06;47.30;96124.34;4972271;28;20595;-69
2023/06/15 01:25:49;;;;;;;8.27;6.17;;;;;;;16.87;47.92;96122.22;4978023;28;20490;-69
2023/06/15 01:28:22;;;;;;;6.53;5.73;;;;;;;16.91;47.69;96121.00;4981279;28;20436;-70
2023/06/15 01:30:52;;;;;;;7.17;6.50;;;;;;;16.95;48.02;96118.97;4980884;28;20542;-71
2023/06/15 01:33:18;;;;;;;6.90;6.30;;;;;;;16.87;47.83;96119.56;4975984;28;21021;-70
2023/06/15 01:35:43;;;;;;;7.27;6.53;;;;;;;16.81;48.16;96114.69;4977089;28;20432;-70
2023/06/15 01:38:10;;;;;;;7.47;6.60;;;;;;;16.77;48.49;96124.66;4984264;28;20591;-71
2023/06/15 01:40:38;;;;;;;13.03;6.53;;;;;;;16.86;47.99;96123.97;4980481;28;20213;-70
2023/06/15 01:43:07;;;;;;;7.93;6.67;;;;;;;16.70;48.69;96116.31;4977888;28;20523;-71
2023/06/15 01:45:35;;;;;;;7.80;6.40;;;;;;;16.75;48.36;96115.97;4972326;28;20543;-71
2023/06/15 01:48:01;;;;;;;7.30;6.70;;;;;;;16.83;48.10;96124.22;4985155;28;20490;-70
2023/06/15 01:50:27;;;;;;;7.13;5.93;;;;;;;16.79;48.34;96116.59;4985115;28;20459;-71
2023/06/15 01:52:53;;;;;;;8.10;6.90;;;;;;;16.71;48.94;96117.16;4980846;28;20519;-69
2023/06/15 01:55:18;;;;;;;7.07;6.37;;;;;;;16.51;49.25;96123.88;5010173;28;20468;-71
2023/06/15 01:57:44;;;;;;;7.30;6.00;;;;;;;16.39;49.62;96117.66;4985088;28;20235;-70
2023/06/15 02:00:10;;;;;;;7.77;6.90;;;;;;;16.45;49.60;96124.31;4988867;28;20236;-71
2023/06/15 02:02:37;;;;;;;10.93;8.57;;;;;;;16.34;50.10;96121.59;4987903;28;20189;-70
2023/06/15 02:05:03;;;;;;;7.07;6.40;;;;;;;16.40;49.88;96126.47;4984475;28;20442;-70
2023/06/15 02:07:29;;;;;;;8.17;6.57;;;;;;;16.41;49.70;96122.84;4987183;28;20440;-71
2023/06/15 02:09:54;;;;;;;7.30;6.60;;;;;;;16.69;49.05;96129.66;4973422;28;20566;-70
2023/06/15 02:12:20;;;;;;;6.60;6.00;;;;;;;16.60;49.30;96122.38;4984163;28;20188;-71
2023/06/15 02:14:48;;;;;;;7.83;7.07;;;;;;;16.73;49.46;96117.88;4981910;28;20212;-70
2023/06/15 02:17:14;;;;;;;6.70;6.13;;;;;;;16.77;49.32;96118.47;4976936;28;20181;-70
2023/06/15 02:19:39;;;;;;;17.10;7.70;;;;;;;16.80;48.83;96113.84;4980249;28;20468;-70
2023/06/15 02:22:05;;;;;;;9.30;6.40;;;;;;;16.66;49.12;96122.78;5012216;28;20455;-71
2023/06/15 02:24:30;;;;;;;9.47;6.27;;;;;;;16.70;49.37;96123.38;4987876;28;20184;-71
2023/06/15 02:26:56;;;;;;;7.67;6.70;;;;;;;16.51;49.47;96118.56;4982179;28;20727;-70
2023/06/15 02:29:21;;;;;;;8.10;6.97;;;;;;;16.68;49.23;96120.03;4980812;28;20196;-71
2023/06/15 02:31:46;;;;;;;8.23;6.30;;;;;;;16.76;49.08;96122.94;4980670;28;20203;-70
2023/06/15 02:34:12;;;;;;;9.50;6.43;;;;;;;16.60;49.21;96122.38;4981328;28;20243;-71
2023/06/15 02:36:37;;;;;;;7.53;6.83;;;;;;;16.52;49.57;96126.41;4983497;28;20182;-69
2023/06/15 02:39:03;;;;;;;7.67;6.60;;;;;;;16.46;49.77;96120.72;4984443;28;20356;-70
2023/06/15 02:41:29;;;;;;;14.77;8.17;;;;;;;16.49;49.89;96120.50;4978739;28;20254;-68
2023/06/15 02:43:55;;;;;;;11.50;7.07;;;;;;;16.42;50.32;96121.91;5001608;28;21053;-71
2023/06/15 02:46:20;;;;;;;12.40;7.10;;;;;;;16.56;49.92;96119.09;4985598;28;20215;-69
2023/06/15 02:48:51;;;;;;;6.70;6.10;;;;;;;16.44;50.28;96126.13;4986292;28;20169;-70
2023/06/15 02:51:18;;;;;;;8.60;6.40;;;;;;;16.58;49.41;96125.13;4982174;28;20216;-70
2023/06/15 02:53:43;;;;;;;12.33;6.77;;;;;;;16.45;49.97;96121.69;4976777;28;20448;-71
2023/06/15 02:56:09;;;;;;;17.63;7.10;;;;;;;16.37;49.99;96130.19;4974701;28;20804;-70
2023/06/15 02:58:34;;;;;;;12.20;7.40;;;;;;;16.56;49.46;96132.34;4987683;28;20169;-70
2023/06/15 03:01:00;;;;;;;33.60;9.90;;;;;;;16.62;49.68;96134.53;4983447;28;20201;-72
2023/06/15 03:03:29;;;;;;;24.17;7.70;;;;;;;16.58;49.63;96132.22;4980298;28;20231;-71
2023/06/15 03:05:55;;;;;;;22.13;8.23;;;;;;;16.68;49.27;96130.63;4976136;28;20506;-69
2023/06/15 03:08:23;;;;;;;42.57;10.80;;;;;;;16.66;49.45;96141.31;4975140;28;20901;-71
2023/06/15 03:10:52;;;;;;;14.70;6.73;;;;;;;16.62;49.94;96136.34;4985875;28;20729;-70
2023/06/15 03:13:18;;;;;;;31.83;11.23;;;;;;;16.51;50.25;96143.28;4975733;28;20432;-72
2023/06/15 03:15:43;;;;;;;45.50;10.40;;;;;;;16.61;49.52;96139.97;4979037;28;20486;-72
2023/06/15 03:18:09;;;;;;;13.53;7.10;;;;;;;16.62;49.58;96144.31;4978870;28;20184;-73
2023/06/15 03:20:34;;;;;;;13.70;7.80;;;;;;;16.58;49.89;96145.47;4972528;28;20831;-71
2023/06/15 03:23:00;;;;;;;21.70;7.93;;;;;;;16.54;49.84;96144.03;4984067;28;20268;-72
2023/06/15 03:25:26;;;;;;;15.80;7.30;;;;;;;16.61;49.93;96146.09;4978328;28;20221;-71
2023/06/15 03:27:59;;;;;;;15.07;7.50;;;;;;;16.65;49.33;96150.25;4976590;28;20231;-73
2023/06/15 03:30:26;;;;;;;16.13;7.60;;;;;;;16.57;49.68;96155.22;4970619;28;20217;-72
2023/06/15 03:32:53;;;;;;;18.47;7.50;;;;;;;16.47;50.20;96149.75;4983258;28;20450;-71
2023/06/15 03:35:20;;;;;;;13.00;7.20;;;;;;;16.58;50.01;96153.41;4979812;28;21220;-71
2023/06/15 03:37:45;;;;;;;16.33;7.57;;;;;;;16.63;49.81;96159.22;4978749;28;20447;-70
2023/06/15 03:40:11;;;;;;;30.53;9.53;;;;;;;16.70;49.95;96157.81;4973203;28;20469;-71
2023/06/15 03:42:36;;;;;;;24.27;8.80;;;;;;;16.85;49.58;96164.72;4997380;28;20173;-71
2023/06/15 03:45:02;;;;;;;12.80;6.90;;;;;;;16.87;49.12;96173.41;4984155;28;20216;-71
2023/06/15 03:47:28;;;;;;;20.73;7.67;;;;;;;16.87;49.52;96165.44;4979723;28;20178;-73
2023/06/15 03:49:53;;;;;;;29.10;8.93;;;;;;;16.94;49.30;96165.84;4977247;28;20205;-72
2023/06/15 03:52:18;;;;;;;72.70;13.57;;;;;;;16.97;49.55;96170.94;4971044;28;20207;-71
2023/06/15 03:54:44;;;;;;;9.00;7.27;;;;;;;17.01;49.03;96168.88;4982595;28;20185;-73
2023/06/15 03:57:10;;;;;;;35.13;9.20;;;;;;;16.98;49.05;96174.41;4981350;28;20277;-72
2023/06/15 03:59:36;;;;;;;58.50;11.03;;;;;;;16.90;49.42;96174.97;5009304;28;20240;-71
2023/06/15 04:02:02;;;;;;;31.03;9.90;;;;;;;16.88;49.88;96172.44;4977890;28;20449;-72
2023/06/15 04:04:28;;;;;;;37.93;10.10;;;;;;;16.98;49.67;96177.91;4980840;28;20180;-73
2023/06/15 04:06:54;;;;;;;38.40;9.40;;;;;;;17.13;49.53;96179.44;4985139;28;20443;-71
2023/06/15 04:09:20;;;;;;;44.83;10.00;;;;;;;17.24;49.27;96185.75;4979624;28;20173;-73
2023/06/15 04:11:45;;;;;;;12.17;6.33;;;;;;;18.13;48.73;96179.06;4978599;28;21171;-69
2023/06/15 04:14:12;;;;;;;21.63;6.67;;;;;;;18.67;47.22;96182.81;4981806;28;20193;-72
2023/06/15 04:16:37;;;;;;;39.50;10.20;;;;;;;18.81;45.06;96185.22;4970874;28;20595;-72
2023/06/15 04:19:03;;;;;;;16.73;7.40;;;;;;;18.91;45.41;96188.00;4981658;28;20484;-70
2023/06/15 04:21:28;;;;;;;18.30;7.93;;;;;;;18.98;45.60;96191.84;4981856;28;20426;-72
2023/06/15 04:23:53;;;;;;;90.40;16.20;;;;;;;19.16;45.13;96189.50;4980767;28;20219;-72
2023/06/15 04:26:19;;;;;;;23.47;9.83;;;;;;;19.65;43.79;96185.44;5008360;28;20726;-71
2023/06/15 04:28:45;;;;;;;15.50;9.30;;;;;;;19.64;42.99;96183.75;4982548;28;20177;-72
2023/06/15 04:31:17;;;;;;;51.13;12.13;;;;;;;19.87;42.78;96185.34;4993324;28;20474;-72
2023/06/15 04:33:43;;;;;;;18.53;11.07;;;;;;;20.08;42.39;96185.34;4986485;28;20264;-71
2023/06/15 04:36:13;;;;;;;14.63;8.77;;;;;;;20.12;42.08;96193.06;4977930;28;20489;-71
2023/06/15 04:38:40;;;;;;;15.43;9.53;;;;;;;20.20;42.01;96188.78;4971303;28;20921;-72
2023/06/15 04:41:07;;;;;;;25.20;10.90;;;;;;;20.25;41.93;96183.06;4973424;28;20460;-72
2023/06/15 04:43:35;;;;;;;12.33;10.93;;;;;;;20.35;41.53;96189.28;4977818;28;20888;-71
2023/06/15 04:46:01;;;;;;;16.90;7.37;;;;;;;20.44;41.38;96196.47;4977406;28;20566;-70
2023/06/15 04:48:27;;;;;;;13.50;8.50;;;;;;;20.57;41.59;96192.78;4973658;28;20448;-70
2023/06/15 04:50:53;;;;;;;28.07;10.00;;;;;;;20.64;40.82;96193.91;4969846;28;20197;-69
2023/06/15 04:53:19;;;;;;;10.03;7.47;;;;;;;20.70;40.92;96194.22;4974860;28;20992;-70
2023/06/15 04:55:44;;;;;;;13.10;8.50;;;;;;;20.86;40.88;96196.41;4979499;28;20529;-69
2023/06/15 04:58:12;;;;;;;18.17;8.00;;;;;;;20.84;40.45;96198.34;4978225;28;20192;-70
2023/06/15 05:00:37;;;;;;;18.60;8.07;;;;;;;21.06;40.45;96194.59;4983647;28;20237;-69
2023/06/15 05:03:03;;;;;;;8.00;7.00;;;;;;;21.17;40.18;96196.31;4978455;28;20538;-68
2023/06/15 05:05:28;;;;;;;14.83;8.00;;;;;;;21.32;39.83;96200.28;4984099;28;20769;-68
2023/06/15 05:07:53;;;;;;;7.63;6.53;;;;;;;21.15;40.38;96207.13;4984262;28;20172;-70
2023/06/15 05:10:19;;;;;;;17.50;7.80;;;;;;;20.96;40.04;96201.75;4984648;28;20666;-69
2023/06/15 05:12:44;;;;;;;23.40;9.83;;;;;;;21.03;39.94;96205.56;4984330;28;20197;-67
2023/06/15 05:15:10;;;;;;;50.03;10.93;;;;;;;21.45;39.47;96207.19;4987856;28;20192;-72
2023/06/15 05:17:36;;;;;;;8.13;7.33;;;;;;;21.01;39.38;96204.84;4985131;28;20200;-71
2023/06/15 05:20:02;;;;;;;21.97;8.60;;;;;;;21.07;40.32;96206.13;4982988;28;20242;-69
2023/06/15 05:22:28;;;;;;;21.43;8.10;;;;;;;21.02;39.53;96211.03;4984291;28;20193;-72
2023/06/15 05:24:53;;;;;;;17.17;7.23;;;;;;;20.67;40.03;96210.50;4985156;28;20419;-72
2023/06/15 05:27:18;;;;;;;9.20;6.83;;;;;;;20.47;40.67;96217.53;4985140;28;20169;-72
2023/06/15 05:29:46;;;;;;;14.50;7.83;;;;;;;19.97;41.83;96219.19;4985214;28;20244;-71
2023/06/15 05:32:11;;;;;;;9.73;6.80;;;;;;;20.25;41.03;96225.69;4986569;28;20584;-72
2023/06/15 05:34:36;;;;;;;11.23;8.00;;;;;;;20.16;41.32;96224.66;4992204;28;20408;-72
2023/06/15 05:37:02;;;;;;;7.77;7.07;;;;;;;19.11;43.07;96224.47;4994416;28;20188;-72
2023/06/15 05:39:28;;;;;;;10.57;8.10;;;;;;;19.30;42.91;96236.25;4990206;28;20223;-70
2023/06/15 05:41:53;;;;;;;10.70;7.70;;;;;;;19.11;43.03;96229.78;4988596;28;20279;-71
2023/06/15 05:44:19;;;;;;;9.27;7.17;;;;;;;19.20;42.92;96231.66;4986458;28;20173;-72
2023/06/15 05:46:44;;;;;;;9.07;7.13;;;;;;;19.43;42.69;96234.28;4986245;28;20706;-73
2023/06/15 05:49:10;;;;;;;9.30;7.77;;;;;;;19.73;42.16;96235.44;4984879;28;20267;-72
2023/06/15 05:51:35;;;;;;;10.93;8.20;;;;;;;19.79;42.26;96240.22;4984989;28;20196;-70
2023/06/15 05:54:01;;;;;;;23.70;7.67;;;;;;;19.71;42.49;96246.19;4986149;28;20177;-72
2023/06/15 05:56:26;;;;;;;17.77;8.23;;;;;;;19.61;42.43;96245.25;4988017;28;20375;-71
2023/06/15 05:58:51;;;;;;;7.60;6.87;;;;;;;19.83;41.82;96245.16;4988208;28;20212;-73
2023/06/15 06:01:17;;;;;;;14.17;8.37;;;;;;;19.84;41.87;96244.22;4987837;28;20204;-70
2023/06/15 06:03:42;;;;;;;14.03;7.73;;;;;;;20.37;40.81;96242.47;4987624;28;20173;-72
2023/06/15 06:06:08;;;;;;;8.50;7.50;;;;;;;20.46;40.23;96241.66;4988071;28;20204;-72
2023/06/15 06:08:33;;;;;;;8.90;7.80;;;;;;;20.67;39.81;96246.97;4988251;28;20518;-71
2023/06/15 06:10:59;;;;;;;13.83;7.77;;;;;;;20.35;40.63;96253.22;4988123;28;20273;-72
2023/06/15 06:13:24;;;;;;;10.03;7.53;;;;;;;20.34;40.70;96242.69;4989101;28;20495;-71
2023/06/15 06:15:49;;;;;;;7.50;6.80;;;;;;;20.29;40.95;96237.75;4988494;28;20278;-72
2023/06/15 06:18:15;;;;;;;7.90;7.10;;;;;;;20.42;40.90;96248.22;4990643;28;20176;-72
2023/06/15 06:20:40;;;;;;;11.73;7.33;;;;;;;20.52;40.43;96247.28;4991234;28;20204;-70
2023/06/15 06:23:06;;;;;;;18.77;7.90;;;;;;;20.24;41.25;96246.16;4991073;28;20219;-71
2023/06/15 06:25:31;;;;;;;10.80;7.50;;;;;;;20.37;41.07;96256.63;4990436;28;20541;-72
2023/06/15 06:27:57;;;;;;;11.07;8.50;;;;;;;20.47;40.64;96256.66;4991808;28;20172;-71
2023/06/15 06:30:23;;;;;;;10.00;7.90;;;;;;;20.19;41.27;96260.84;4991116;28;20235;-72
2023/06/15 06:32:49;;;;;;;10.17;7.90;;;;;;;19.85;42.35;96263.69;4991731;28;20412;-71
2023/06/15 06:35:15;;;;;;;17.53;8.13;;;;;;;20.72;40.95;96255.44;4991146;28;20718;-73
2023/06/15 06:37:40;;;;;;;13.97;7.30;;;;;;;21.22;39.76;96251.97;4991598;28;20265;-73
2023/06/15 06:40:06;;;;;;;9.23;7.93;;;;;;;21.13;39.54;96245.59;4991411;28;20209;-73
2023/06/15 06:42:31;;;;;;;7.63;7.03;;;;;;;20.15;41.35;96254.06;4991653;28;20165;-73
2023/06/15 06:44:57;;;;;;;8.47;7.10;;;;;;;20.13;41.87;96254.22;4991065;28;20994;-72
2023/06/15 06:47:22;;;;;;;8.43;7.53;;;;;;;20.41;41.03;96252.72;4994287;28;20255;-70
2023/06/15 06:49:48;;;;;;;14.20;7.50;;;;;;;20.01;41.05;96256.09;4994181;28;20260;-73
2023/06/15 06:52:13;;;;;;;8.63;7.80;;;;;;;20.83;40.53;96258.00;5000129;28;20188;-70
2023/06/15 06:54:39;;;;;;;10.20;8.17;;;;;;;20.76;40.61;96256.00;4999708;28;20291;-72
2023/06/15 06:57:05;;;;;;;20.50;8.73;;;;;;;21.33;39.27;96254.50;5001710;28;20238;-73
2023/06/15 06:59:30;;;;;;;9.20;7.70;;;;;;;21.64;38.36;96252.63;5001934;28;20201;-71
2023/06/15 07:01:56;;;;;;;12.53;7.37;;;;;;;21.61;38.47;96260.06;4991989;28;20808;-71
2023/06/15 07:04:21;;;;;;;12.23;8.23;;;;;;;21.17;39.25;96257.69;4989722;28;20180;-72
2023/06/15 07:06:47;;;;;;;8.73;7.53;;;;;;;21.68;38.67;96261.19;4990031;28;20180;-70
2023/06/15 07:09:12;;;;;;;12.40;8.30;;;;;;;21.77;38.46;96255.84;4990105;28;20181;-71
2023/06/15 07:11:38;;;;;;;9.60;7.27;;;;;;;21.66;38.43;96256.00;4990057;28;20700;-70
2023/06/15 07:14:03;;;;;;;10.67;8.40;;;;;;;20.72;40.85;96263.44;4989815;28;20204;-72
2023/06/15 07:16:32;;;;;;;15.83;8.63;;;;;;;21.07;40.01;96264.81;4990700;28;20173;-73
2023/06/15 07:18:58;;;;;;;8.60;7.17;;;;;;;21.16;39.95;96266.66;4991226;28;20220;-72
2023/06/15 07:21:24;;;;;;;14.87;7.70;;;;;;;21.54;39.66;96254.41;4990389;28;20452;-71
2023/06/15 07:23:49;;;;;;;7.73;7.10;;;;;;;21.60;39.24;96258.38;4990120;28;20435;-71
2023/06/15 07:26:14;;;;;;;9.77;7.63;;;;;;;21.75;39.05;96248.97;4990433;28;20276;-70
2023/06/15 07:28:40;;;;;;;14.13;8.23;;;;;;;22.03;38.32;96252.59;4991275;28;20197;-71
2023/06/15 07:31:05;;;;;;;10.33;7.63;;;;;;;21.80;39.08;96253.88;4991886;28;20560;-71
2023/06/15 07:33:31;;;;;;;8.73;7.40;;;;;;;22.07;38.74;96262.03;4990125;28;20172;-72
2023/06/15 07:35:56;;;;;;;31.07;9.57;;;;;;;22.72;37.73;96248.81;4990194;28;20183;-71
2023/06/15 07:38:22;;;;;;;17.90;8.23;;;;;;;23.25;36.70;96244.69;4990498;28;20176;-72
2023/06/15 07:40:47;;;;;;;8.80;7.83;;;;;;;22.98;36.86;96257.06;4992643;28;20256;-71
2023/06/15 07:43:12;;;;;;;8.87;7.60;;;;;;;22.46;38.10;96253.13;4996367;28;20212;-71
2023/06/15 07:45:38;;;;;;;9.80;7.77;;;;;;;22.53;37.82;96251.56;4999361;28;20173;-71
2023/06/15 07:48:04;;;;;;;12.00;8.30;;;;;;;22.18;38.41;96245.84;5005495;28;20173;-71
2023/06/15 07:50:30;;;;;;;8.97;7.87;;;;;;;22.49;37.76;96251.03;5004690;28;20248;-73
2023/06/15 07:52:55;;;;;;;9.30;8.13;;;;;;;22.40;37.73;96254.56;5000688;28;20515;-70
2023/06/15 07:55:21;;;;;;;11.70;8.03;;;;;;;22.58;38.03;96247.50;5004254;28;20573;-71
2023/06/15 07:57:46;;;;;;;11.03;7.47;;;;;;;22.73;36.68;96247.03;4998084;28;20188;-72
2023/06/15 08:00:12;;;;;;;9.23;7.77;;;;;;;22.24;37.77;96254.31;4990207;28;20223;-73
2023/06/15 08:02:38;;;;;;;9.20;7.83;;;;;;;22.55;37.73;96252.28;4989413;28;20553;-72
2023/06/15 08:05:03;;;;;;;11.00;7.20;;;;;;;23.04;37.59;96243.09;4989187;28;20177;-73
2023/06/15 08:07:31;;;;;;;10.90;7.90;;;;;;;23.25;37.02;96242.84;4989873;28;20710;-70
2023/06/15 08:09:56;;;;;;;10.27;7.67;;;;;;;23.41;36.53;96247.56;4989027;28;20255;-71
2023/06/15 08:12:21;;;;;;;16.10;7.83;;;;;;;23.20;36.35;96245.16;4988784;28;20511;-71
2023/06/15 08:14:47;;;;;;;16.60;9.23;;;;;;;23.47;36.16;96251.47;4988565;28;20184;-71
2023/06/15 08:17:12;;;;;;;9.03;8.20;;;;;;;23.05;36.91;96235.91;4987703;28;20248;-71
2023/06/15 08:19:38;;;;;;;8.43;7.63;;;;;;;22.49;37.08;96252.84;4988863;28;20211;-71
2023/06/15 08:22:03;;;;;;;10.40;7.57;;;;;;;21.60;38.79;96247.69;4988451;28;20287;-73
2023/06/15 08:24:29;;;;;;;8.33;7.53;;;;;;;21.97;38.21;96242.50;4988065;28;20359;-72
2023/06/15 08:26:54;;;;;;;9.50;7.80;;;;;;;22.17;38.44;96246.81;4987900;28;20172;-73
2023/06/15 08:29:20;;;;;;;9.80;7.73;;;;;;;22.29;37.99;96244.88;4988860;28;20666;-71
2023/06/15 08:31:46;;;;;;;9.30;7.37;;;;;;;22.55;37.52;96244.25;4987986;28;20569;-71
2023/06/15 08:34:11;;;;;;;19.30;8.43;;;;;;;22.36;37.64;96243.31;4987804;28;20408;-72
2023/06/15 08:36:37;;;;;;;8.53;7.60;;;;;;;21.92;38.74;96236.72;4988224;28;20211;-73
2023/06/15 08:39:07;;;;;;;8.47;6.73;;;;;;;22.02;39.16;96236.75;4987094;28;20278;-71
2023/06/15 08:41:37;;;;;;;8.97;8.07;;;;;;;22.02;39.06;96242.09;4988169;28;20193;-71
2023/06/15 08:44:05;;;;;;;11.87;8.00;;;;;;;22.39;38.47;96243.03;4986391;28;20407;-72
2023/06/15 08:46:30;;;;;;;8.30;7.50;;;;;;;22.67;37.51;96239.56;4987974;28;20897;-71
2023/06/15 08:48:57;;;;;;;7.90;7.20;;;;;;;22.21;38.42;96249.28;4987872;28;20416;-73
2023/06/15 08:51:23;;;;;;;11.10;8.67;;;;;;;22.95;37.69;96243.13;4987665;28;20740;-72
2023/06/15 08:53:48;;;;;;;8.23;7.53;;;;;;;22.98;37.20;96242.81;4987751;28;20408;-71
2023/06/15 08:56:14;;;;;;;12.93;8.27;;;;;;;22.84;37.25;96238.78;4986228;28;20173;-72
2023/06/15 08:58:41;;;;;;;10.73;8.07;;;;;;;22.83;37.55;96237.94;4986332;28;20177;-71
2023/06/15 09:01:08;;;;;;;14.27;8.57;;;;;;;22.47;38.12;96238.81;4988202;28;20318;-71
2023/06/15 09:03:34;;;;;;;45.73;10.70;;;;;;;22.82;37.79;96249.66;4987435;28;20413;-71
2023/06/15 09:06:00;;;;;;;16.13;9.00;;;;;;;23.19;36.64;96245.28;4988113;28;20420;-72
2023/06/15 09:08:25;;;;;;;9.43;7.23;;;;;;;23.64;36.03;96231.88;4988003;28;20447;-71
2023/06/15 09:11:04;;;;;;;8.33;7.53;;;;;;;23.70;35.83;96234.97;4987976;28;20207;-72
2023/06/15 09:13:32;;;;;;;15.97;8.27;;;;;;;23.67;35.62;96233.44;4994896;28;20173;-73
2023/06/15 09:15:58;;;;;;;13.70;8.40;;;;;;;23.66;35.70;96231.72;4987980;28;20424;-71
2023/06/15 09:18:24;;;;;;;7.63;6.80;;;;;;;24.13;35.38;96234.19;4987988;28;20468;-72
2023/06/15 09:20:49;;;;;;;10.23;6.73;;;;;;;23.79;35.35;96236.75;4986462;28;20972;-72
2023/06/15 09:23:15;;;;;;;9.43;6.90;;;;;;;23.59;34.47;96236.00;4988325;28;20227;-72
2023/06/15 09:25:51;;;;;;;7.73;6.30;;;;;;;23.76;34.24;96234.38;4987348;28;20817;-72
2023/06/15 09:28:21;;;;;;;8.57;7.77;;;;;;;23.20;36.00;96236.28;4987102;28;20598;-71
2023/06/15 09:30:52;;;;;;;8.90;7.37;;;;;;;23.32;35.48;96235.06;4987595;28;20462;-71
2023/06/15 09:33:19;;;;;;;10.77;7.33;;;;;;;23.76;34.87;96226.31;4987338;28;20412;-72
2023/06/15 09:36:02;;;;;;;7.60;6.90;;;;;;;24.08;33.99;96221.25;4987282;28;20506;-72
2023/06/15 09:38:57;;;;;;;11.50;6.60;;;;;;;24.54;32.76;96222.94;4987329;28;20506;-71
2023/06/15 09:41:23;;;;;;;6.47;5.43;;;;;;;24.41;32.47;96216.13;4986324;28;20456;-72
2023/06/15 09:43:48;;;;;;;7.80;5.90;;;;;;;23.79;33.21;96226.88;4987185;28;20931;-72
2023/06/15 09:46:16;;;;;;;8.13;6.60;;;;;;;23.67;33.32;96233.44;4987200;28;20176;-71
2023/06/15 09:48:44;;;;;;;7.30;6.57;;;;;;;23.49;34.17;96236.09;4987396;28;20215;-72
2023/06/15 09:51:10;;;;;;;9.20;6.67;;;;;;;23.66;32.58;96223.69;4987193;28;20597;-71
2023/06/15 09:53:39;;;;;;;6.00;5.40;;;;;;;23.29;32.18;96230.00;4987001;28;20515;-70
2023/06/15 09:56:05;;;;;;;10.13;6.20;;;;;;;23.30;33.17;96226.34;4987097;28;20177;-73
2023/06/15 09:58:31;;;;;;;7.53;6.10;;;;;;;23.50;31.87;96223.53;4987446;28;20890;-73
2023/06/15 10:00:58;;;;;;;5.33;4.83;;;;;;;23.14;30.83;96224.31;4987117;28;20432;-72
2023/06/15 10:03:25;;;;;;;8.57;5.00;;;;;;;23.36;30.78;96225.75;4987181;28;20181;-72
2023/06/15 10:05:58;;;;;;;6.47;5.40;;;;;;;23.65;31.27;96224.69;4987114;28;20965;-71
2023/06/15 10:08:25;;;;;;;9.30;5.90;;;;;;;24.14;31.12;96209.03;4987120;28;20411;-72
2023/06/15 10:10:51;;;;;;;8.50;5.87;;;;;;;23.99;30.71;96227.53;4987595;28;20432;-71
2023/06/15 10:13:26;;;;;;;7.73;6.40;;;;;;;23.76;31.22;96226.31;4987701;28;20510;-72
2023/06/15 10:15:55;;;;;;;7.43;5.50;;;;;;;23.33;32.00;96233.22;4986837;28;20552;-73
2023/06/15 10:18:22;;;;;;;10.13;6.17;;;;;;;23.66;29.87;96221.84;4987032;28;20500;-72
2023/06/15 10:20:55;;;;;;;11.50;5.97;;;;;;;24.01;28.97;96214.00;4987125;28;20982;-72
2023/06/15 10:23:25;;;;;;;16.27;6.23;;;;;;;24.44;27.89;96205.06;4987048;28;20426;-72
2023/06/15 10:25:55;;;;;;;7.43;5.67;;;;;;;23.94;28.26;96218.28;4986917;28;20412;-72
2023/06/15 10:28:23;;;;;;;5.90;5.17;;;;;;;24.05;27.97;96220.72;4987026;28;20479;-71
2023/06/15 10:31:44;;;;;;;8.00;5.07;;;;;;;23.75;27.90;96225.50;4986458;28;20431;-71
2023/06/15 10:34:21;;;;;;;9.53;5.43;;;;;;;23.30;28.78;96221.00;4984081;28;20483;-72
2023/06/15 10:36:54;;;;;;;8.60;4.83;;;;;;;23.49;29.12;96227.22;4986441;28;20416;-71
2023/06/15 10:39:44;;;;;;;5.30;4.47;;;;;;;23.33;29.11;96234.06;4987014;28;20856;-71
2023/06/15 10:42:13;;;;;;;8.30;5.87;;;;;;;23.29;29.02;96231.84;4990106;28;20466;-72
2023/06/15 10:44:38;;;;;;;6.03;5.43;;;;;;;23.17;28.77;96233.88;4990358;28;20424;-72
2023/06/15 10:47:12;;;;;;;11.13;5.10;;;;;;;23.01;29.06;96231.88;4990857;28;20419;-71
2023/06/15 10:49:48;;;;;;;8.73;5.53;;;;;;;23.11;29.31;96226.47;4989470;28;20204;-72
2023/06/15 10:52:14;;;;;;;8.20;4.87;;;;;;;23.08;29.59;96232.97;4990975;28;20408;-70
2023/06/15 10:54:39;;;;;;;12.03;5.50;;;;;;;23.32;29.75;96235.06;4991001;28;20420;-72
2023/06/15 10:57:06;;;;;;;12.30;5.50;;;;;;;23.33;29.97;96234.06;4991684;28;20611;-72
2023/06/15 10:59:49;;;;;;;13.30;5.93;;;;;;;23.33;30.31;96234.06;4989323;28;20259;-70
2023/06/15 11:02:26;;;;;;;32.87;8.30;;;;;;;23.60;30.44;96235.03;4990031;28;20428;-73
2023/06/15 11:04:52;;;;;;;6.33;5.73;;;;;;;23.59;29.71;96236.00;4989527;28;20415;-73
2023/06/15 11:07:27;;;;;;;6.13;5.53;;;;;;;23.57;30.58;96240.69;4990063;28;20420;-73
2023/06/15 11:09:56;;;;;;;11.20;5.93;;;;;;;23.61;30.86;96240.22;4990293;28;20168;-72
2023/06/15 11:12:39;;;;;;;6.37;5.70;;;;;;;23.53;31.65;96236.59;4989587;28;20898;-72
2023/06/15 11:15:06;;;;;;;14.17;6.40;;;;;;;23.59;32.04;96236.00;4989778;28;20948;-72
2023/06/15 11:17:53;;;;;;;7.30;6.30;;;;;;;23.09;32.68;96233.78;4989661;28;20424;-71
2023/06/15 11:20:37;;;;;;;9.93;5.90;;;;;;;22.99;32.15;96240.03;4989624;28;20549;-72
2023/06/15 11:23:09;;;;;;;8.67;6.50;;;;;;;23.08;32.89;96234.75;4989940;28;20432;-72
2023/06/15 11:25:37;;;;;;;6.20;5.60;;;;;;;23.19;32.45;96239.94;4989194;28;20504;-71
2023/06/15 11:28:03;;;;;;;13.40;6.20;;;;;;;23.11;32.60;96242.53;4990033;28;20989;-72
2023/06/15 11:30:29;;;;;;;9.33;5.20;;;;;;;23.10;32.63;96233.63;4990016;28;20522;-71